Time;durP1;ratioP1;P1;durP2;ratioP2;P2;SDS_P1;SDS_P2;PMS_P1;PMS_P2;Temp;Humidity;BMP_temperature;BMP_pressure;BME280_temperature;BME280_humidity;BME280_pressure;Samples;Min_cycle;Max_cycle;Signal;HPM_P1;HPM_P2
2021/10/03 00:02:01;;;;;;;5.60;4.20;;;;;;;17.65;66.63;99464.38;5085730;28;20207;-85
2021/10/03 00:04:30;;;;;;;4.37;3.90;;;;;;;17.66;66.59;99466.06;5084662;28;20222;-85
2021/10/03 00:06:59;;;;;;;4.50;3.43;;;;;;;17.66;66.46;99460.69;5081373;28;20205;-84
2021/10/03 00:09:26;;;;;;;4.60;3.63;;;;;;;17.68;66.55;99458.66;5088913;28;20227;-84
2021/10/03 00:11:54;;;;;;;6.73;3.80;;;;;;;17.71;66.52;99446.72;5088455;28;20663;-85
2021/10/03 00:14:23;;;;;;;6.13;4.30;;;;;;;17.72;66.46;99445.72;5109217;28;20213;-85
2021/10/03 00:16:53;;;;;;;4.67;3.67;;;;;;;17.73;66.18;99444.69;5097352;28;20213;-84
2021/10/03 00:19:20;;;;;;;4.73;3.73;;;;;;;17.74;66.14;99441.81;5095814;28;20228;-86
2021/10/03 00:21:47;;;;;;;5.47;3.80;;;;;;;17.75;66.21;99438.09;5095459;28;20203;-85
2021/10/03 00:24:14;;;;;;;4.63;4.07;;;;;;;17.77;66.03;99438.78;5096221;28;20226;-85
2021/10/03 00:26:41;;;;;;;5.63;3.80;;;;;;;17.80;66.02;99438.44;5096485;28;20576;-84
2021/10/03 00:29:09;;;;;;;5.37;4.17;;;;;;;17.81;66.07;99437.41;5096251;28;20236;-85
2021/10/03 00:31:36;;;;;;;4.33;3.60;;;;;;;17.81;66.01;99439.28;5101192;28;20215;-85
2021/10/03 00:34:03;;;;;;;5.70;4.27;;;;;;;17.82;65.91;99433.72;5096360;28;20207;-85
2021/10/03 00:36:30;;;;;;;6.07;4.40;;;;;;;17.83;65.98;99435.41;5097015;28;20213;-84
2021/10/03 00:38:57;;;;;;;5.30;4.33;;;;;;;17.84;65.73;99433.53;5096906;28;20235;-84
2021/10/03 00:41:23;;;;;;;4.33;3.80;;;;;;;17.83;66.08;99435.41;5097756;28;20211;-83
2021/10/03 00:43:50;;;;;;;5.57;4.50;;;;;;;17.84;66.02;99434.38;5096331;28;20227;-82
2021/10/03 00:46:16;;;;;;;5.00;4.17;;;;;;;17.85;66.00;99435.22;5096356;28;20677;-82
2021/10/03 00:48:44;;;;;;;5.47;4.00;;;;;;;17.85;65.84;99428.00;5096411;28;20252;-83
2021/10/03 00:51:11;;;;;;;4.67;4.10;;;;;;;17.86;65.76;99418.06;5095905;28;20214;-83
2021/10/03 00:53:38;;;;;;;5.10;4.20;;;;;;;17.86;65.84;99418.06;5094810;28;20207;-82
2021/10/03 00:56:05;;;;;;;4.73;3.93;;;;;;;17.88;66.01;99408.78;5095990;28;20214;-83
2021/10/03 00:58:32;;;;;;;5.43;4.07;;;;;;;17.88;65.51;99406.09;5095796;28;20236;-83
2021/10/03 01:00:58;;;;;;;5.03;3.90;;;;;;;17.88;65.57;99406.09;5095913;28;20217;-82
2021/10/03 01:03:25;;;;;;;6.27;3.77;;;;;;;17.90;65.41;99401.38;5095856;28;20236;-82
2021/10/03 01:05:53;;;;;;;4.00;3.60;;;;;;;17.94;65.24;99394.59;5096226;28;20204;-82
2021/10/03 01:08:20;;;;;;;6.70;4.03;;;;;;;17.97;64.99;99394.25;5097904;28;20238;-84
2021/10/03 01:10:46;;;;;;;6.70;3.87;;;;;;;18.01;64.91;99392.06;5095320;28;20584;-84
2021/10/03 01:13:13;;;;;;;5.03;3.77;;;;;;;18.01;64.78;99382.13;5095608;28;20216;-86
2021/10/03 01:15:42;;;;;;;5.67;4.30;;;;;;;18.05;64.65;99379.94;5095532;28;20224;-85
2021/10/03 01:18:09;;;;;;;4.73;4.00;;;;;;;18.07;64.61;99380.59;5095957;28;20236;-86
2021/10/03 01:20:37;;;;;;;5.40;4.40;;;;;;;18.09;64.38;99367.78;5095380;28;20209;-84
2021/10/03 01:23:06;;;;;;;5.40;4.00;;;;;;;18.11;64.32;99367.59;5094794;28;20209;-85
2021/10/03 01:25:34;;;;;;;4.57;3.73;;;;;;;18.15;64.12;99358.13;5106857;28;20200;-83
2021/10/03 01:28:01;;;;;;;4.70;3.40;;;;;;;18.19;63.88;99370.25;5096074;28;20247;-83
2021/10/03 01:30:28;;;;;;;4.00;3.60;;;;;;;18.24;63.53;99357.94;5095356;28;20213;-85
2021/10/03 01:32:55;;;;;;;5.77;3.60;;;;;;;18.25;63.36;99358.78;5096655;28;20220;-83
2021/10/03 01:35:21;;;;;;;5.60;3.93;;;;;;;18.30;63.20;99361.75;5110158;28;20215;-86
2021/10/03 01:37:50;;;;;;;4.00;3.53;;;;;;;18.32;63.10;99365.13;5106355;28;20235;-86
2021/10/03 01:40:21;;;;;;;6.47;3.90;;;;;;;18.33;62.93;99362.25;5105052;28;20272;-85
2021/10/03 01:42:49;;;;;;;4.67;3.80;;;;;;;18.33;63.01;99358.72;5105526;28;20211;-85
2021/10/03 01:45:18;;;;;;;5.33;3.50;;;;;;;18.35;62.68;99378.25;5105612;28;20244;-85
2021/10/03 01:48:06;;;;;;;5.03;4.00;;;;;;;18.37;62.71;99365.44;5105469;28;20226;-86
2021/10/03 01:50:34;;;;;;;4.83;3.50;;;;;;;18.39;62.51;99379.56;5107073;28;20211;-86
2021/10/03 01:53:01;;;;;;;3.80;3.50;;;;;;;18.41;62.48;99374.84;5104900;28;20211;-87
2021/10/03 01:55:29;;;;;;;4.50;3.63;;;;;;;18.43;62.44;99378.22;5111445;28;20287;-87
2021/10/03 01:57:55;;;;;;;4.13;3.63;;;;;;;18.45;62.21;99378.84;5106744;28;20321;-87
2021/10/03 02:00:22;;;;;;;4.97;3.80;;;;;;;18.47;62.36;99371.41;5105059;28;20614;-85
2021/10/03 02:02:56;;;;;;;5.53;4.00;;;;;;;18.50;62.36;99367.53;5102204;28;20273;-83
2021/10/03 02:05:23;;;;;;;4.03;3.47;;;;;;;18.49;62.39;99371.25;5102390;28;20249;-84
2021/10/03 02:07:49;;;;;;;4.23;3.77;;;;;;;18.48;62.35;99362.31;5102548;28;20295;-84
2021/10/03 02:10:16;;;;;;;4.00;3.60;;;;;;;18.49;62.32;99360.47;5100822;28;20206;-87
2021/10/03 02:12:44;;;;;;;4.10;3.40;;;;;;;18.49;62.32;99350.50;5100372;28;20215;-86
2021/10/03 02:15:11;;;;;;;3.87;3.33;;;;;;;18.51;62.12;99355.72;5101257;28;20211;-86
2021/10/03 02:17:37;;;;;;;5.30;3.60;;;;;;;18.51;61.98;99353.03;5100804;28;20223;-85
2021/10/03 02:20:06;;;;;;;4.20;3.70;;;;;;;18.51;61.98;99336.84;5101411;28;20211;-84
2021/10/03 02:22:33;;;;;;;5.90;3.43;;;;;;;18.49;62.12;99318.16;5101621;28;20287;-84
2021/10/03 02:24:59;;;;;;;4.20;3.23;;;;;;;18.49;61.91;99320.84;5100958;28;20747;-87
2021/10/03 02:27:26;;;;;;;4.37;3.50;;;;;;;18.50;61.61;99325.22;5101518;28;20209;-83
2021/10/03 02:29:54;;;;;;;4.80;3.70;;;;;;;18.53;61.62;99318.66;5102506;28;20298;-84
2021/10/03 02:32:21;;;;;;;4.03;3.53;;;;;;;18.53;61.44;99324.88;5102636;28;20752;-84
2021/10/03 02:34:48;;;;;;;4.10;3.67;;;;;;;18.56;61.56;99329.91;5098355;28;20215;-83
2021/10/03 02:37:14;;;;;;;3.60;3.30;;;;;;;18.57;61.22;99318.09;5096418;28;20207;-83
2021/10/03 02:39:41;;;;;;;3.87;3.40;;;;;;;18.58;61.24;99310.84;5094576;28;20254;-84
2021/10/03 02:42:07;;;;;;;3.27;2.97;;;;;;;18.61;61.14;99321.31;5095013;28;20678;-83
2021/10/03 02:44:34;;;;;;;4.03;3.07;;;;;;;18.60;61.05;99320.47;5096461;28;20235;-83
2021/10/03 02:47:03;;;;;;;5.20;3.23;;;;;;;18.60;61.07;99308.84;5096176;28;20206;-84
2021/10/03 02:49:29;;;;;;;3.80;3.50;;;;;;;18.62;60.94;99315.75;5096390;28;20225;-83
2021/10/03 02:51:58;;;;;;;3.77;3.40;;;;;;;18.62;60.87;99318.44;5096159;28;20226;-83
2021/10/03 02:54:24;;;;;;;4.00;3.13;;;;;;;18.65;60.73;99323.44;5099659;28;20204;-83
2021/10/03 02:56:51;;;;;;;3.33;3.03;;;;;;;18.67;60.86;99317.88;5100225;28;20209;-83
2021/10/03 02:59:17;;;;;;;3.63;3.03;;;;;;;18.68;60.47;99324.94;5098882;28;20239;-85
2021/10/03 03:01:44;;;;;;;5.70;3.53;;;;;;;18.69;60.53;99319.38;5102287;28;20213;-85
2021/10/03 03:04:12;;;;;;;3.80;3.37;;;;;;;18.70;60.35;99325.63;5103145;28;20236;-84
2021/10/03 03:06:38;;;;;;;3.53;2.87;;;;;;;18.70;60.42;99326.44;5102792;28;20202;-86
2021/10/03 03:09:05;;;;;;;3.00;2.77;;;;;;;18.71;60.43;99322.75;5102716;28;20287;-86
2021/10/03 03:11:32;;;;;;;4.20;2.80;;;;;;;18.74;60.32;99324.25;5102161;28;20209;-84
2021/10/03 03:13:59;;;;;;;3.57;3.20;;;;;;;18.73;60.32;99327.94;5102892;28;20243;-86
2021/10/03 03:16:25;;;;;;;3.97;2.63;;;;;;;18.76;60.26;99315.97;5101692;28;20210;-86
2021/10/03 03:18:52;;;;;;;4.50;3.07;;;;;;;18.76;60.44;99315.97;5102224;28;20759;-85
2021/10/03 03:21:21;;;;;;;4.37;3.20;;;;;;;18.75;60.05;99320.53;5102275;28;20210;-84
2021/10/03 03:23:48;;;;;;;4.23;3.30;;;;;;;18.76;60.07;99329.44;5101748;28;20210;-85
2021/10/03 03:26:14;;;;;;;4.23;2.87;;;;;;;18.75;60.07;99334.00;5101734;28;20208;-84
2021/10/03 03:28:41;;;;;;;3.50;3.10;;;;;;;18.74;60.03;99332.34;5101232;28;20228;-85
2021/10/03 03:31:07;;;;;;;3.63;3.33;;;;;;;18.75;59.95;99335.88;5102135;28;20227;-84
2021/10/03 03:33:34;;;;;;;4.50;3.23;;;;;;;18.75;59.91;99327.78;5101029;28;20289;-85
2021/10/03 03:36:01;;;;;;;4.10;3.30;;;;;;;18.75;59.90;99333.16;5101697;28;20202;-84
2021/10/03 03:38:33;;;;;;;3.97;3.03;;;;;;;18.76;59.77;99330.28;5100997;28;20225;-84
2021/10/03 03:41:00;;;;;;;3.53;3.07;;;;;;;18.78;59.91;99328.25;5099777;28;20201;-83
2021/10/03 03:43:26;;;;;;;2.60;2.40;;;;;;;18.81;59.96;99332.47;5099935;28;20209;-85
2021/10/03 03:45:53;;;;;;;7.57;2.80;;;;;;;18.82;60.15;99352.97;5101994;28;20320;-85
2021/10/03 03:48:20;;;;;;;3.40;2.70;;;;;;;18.87;59.71;99342.50;5101659;28;20311;-86
2021/10/03 03:50:46;;;;;;;4.00;2.90;;;;;;;18.94;59.54;99338.91;5102223;28;20269;-87
2021/10/03 03:53:13;;;;;;;3.40;2.90;;;;;;;19.00;59.61;99348.94;5101663;28;20399;-85
2021/10/03 03:55:41;;;;;;;3.33;2.47;;;;;;;19.08;59.38;99334.56;5103341;28;20631;-86
2021/10/03 03:58:08;;;;;;;5.57;3.27;;;;;;;19.16;59.36;99339.88;5104237;28;20637;-86
2021/10/03 04:00:34;;;;;;;6.00;3.13;;;;;;;19.24;58.89;99347.88;5098241;28;20207;-85
2021/10/03 04:03:01;;;;;;;6.77;3.07;;;;;;;19.29;59.11;99345.47;5105102;28;20753;-85
2021/10/03 04:05:28;;;;;;;3.53;2.80;;;;;;;19.36;58.79;99351.78;5099340;28;20238;-86
2021/10/03 04:07:54;;;;;;;4.07;2.77;;;;;;;19.41;58.85;99353.94;5096290;28;20237;-85
2021/10/03 04:10:21;;;;;;;4.47;2.73;;;;;;;19.45;58.81;99362.53;5096461;28;20309;-85
2021/10/03 04:12:49;;;;;;;3.37;2.30;;;;;;;19.48;58.88;99352.19;5101927;28;20270;-85
2021/10/03 04:15:16;;;;;;;4.33;2.90;;;;;;;19.50;58.89;99355.59;5103364;28;20219;-86
2021/10/03 04:17:43;;;;;;;3.23;2.53;;;;;;;19.52;58.53;99350.84;5103540;28;20778;-85
2021/10/03 04:20:10;;;;;;;3.83;2.93;;;;;;;19.52;58.86;99347.28;5102801;28;20610;-87
2021/10/03 04:22:37;;;;;;;3.37;2.17;;;;;;;19.54;58.59;99356.03;5104037;28;20298;-85
2021/10/03 04:25:04;;;;;;;2.80;2.13;;;;;;;19.53;58.47;99344.38;5103871;28;20291;-87
2021/10/03 04:27:31;;;;;;;4.07;2.57;;;;;;;19.56;58.52;99345.88;5105484;28;20286;-85
2021/10/03 04:29:59;;;;;;;3.40;2.60;;;;;;;19.61;58.45;99352.41;5102475;28;20303;-85
2021/10/03 04:32:26;;;;;;;4.00;2.87;;;;;;;19.62;58.24;99337.88;5102390;28;20229;-85
2021/10/03 04:34:52;;;;;;;3.10;2.80;;;;;;;19.64;58.34;99348.50;5100785;28;20234;-83
2021/10/03 04:37:19;;;;;;;3.43;2.90;;;;;;;19.63;58.11;99341.41;5095806;28;20209;-86
2021/10/03 04:39:45;;;;;;;3.40;2.70;;;;;;;19.63;58.41;99334.16;5088137;28;20208;-85
2021/10/03 04:42:13;;;;;;;5.23;3.03;;;;;;;19.61;58.36;99343.47;5098572;28;20222;-86
2021/10/03 04:44:40;;;;;;;3.97;3.00;;;;;;;19.62;58.28;99334.34;5095520;28;20227;-85
2021/10/03 04:47:08;;;;;;;3.33;2.83;;;;;;;19.61;58.37;99329.97;5093387;28;20214;-85
2021/10/03 04:49:34;;;;;;;6.23;3.43;;;;;;;19.62;58.23;99339.75;5090117;28;20225;-85
2021/10/03 04:52:01;;;;;;;4.17;3.40;;;;;;;19.60;57.99;99339.91;5097131;28;20203;-85
2021/10/03 04:54:27;;;;;;;3.07;2.77;;;;;;;19.59;58.39;99338.25;5090780;28;20295;-85
2021/10/03 04:56:54;;;;;;;4.43;3.13;;;;;;;19.60;58.25;99345.31;5091423;28;20256;-84
2021/10/03 04:59:20;;;;;;;3.60;3.30;;;;;;;19.60;58.13;99330.97;5099676;28;20221;-85
2021/10/03 05:01:47;;;;;;;4.83;2.93;;;;;;;19.62;57.96;99340.56;5096297;28;20212;-84
2021/10/03 05:04:15;;;;;;;3.27;2.90;;;;;;;19.62;57.88;99328.94;5088359;28;20207;-85
2021/10/03 05:06:41;;;;;;;4.70;2.80;;;;;;;19.64;57.56;99329.59;5100804;28;20205;-84
2021/10/03 05:09:08;;;;;;;3.20;2.80;;;;;;;19.64;57.72;99324.19;5101039;28;20589;-84
2021/10/03 05:11:35;;;;;;;4.53;2.87;;;;;;;19.63;57.71;99334.16;5097553;28;20212;-84
2021/10/03 05:14:06;;;;;;;3.40;3.00;;;;;;;19.64;57.42;99340.41;5091451;28;20223;-83
2021/10/03 05:16:33;;;;;;;3.00;2.63;;;;;;;19.63;57.83;99336.00;5100451;28;20210;-84
2021/10/03 05:18:59;;;;;;;4.10;3.10;;;;;;;19.62;57.72;99335.19;5100963;28;20228;-84
2021/10/03 05:21:28;;;;;;;3.33;2.60;;;;;;;19.62;57.87;99328.94;5101868;28;20203;-85
2021/10/03 05:23:54;;;;;;;3.27;2.67;;;;;;;19.61;57.82;99319.16;5101245;28;20211;-83
2021/10/03 05:26:21;;;;;;;5.00;2.60;;;;;;;19.59;57.94;99329.31;5101572;28;20333;-84
2021/10/03 05:28:47;;;;;;;3.40;3.10;;;;;;;19.57;58.11;99324.09;5099993;28;20223;-85
2021/10/03 05:31:14;;;;;;;2.90;2.70;;;;;;;19.54;58.04;99327.16;5100736;28;20213;-84
2021/10/03 05:33:40;;;;;;;3.67;2.73;;;;;;;19.51;58.19;99334.81;5095885;28;20283;-85
2021/10/03 05:36:09;;;;;;;4.00;3.00;;;;;;;19.48;58.47;99336.00;5095582;28;20215;-85
2021/10/03 05:38:39;;;;;;;3.43;2.70;;;;;;;19.43;58.76;99333.84;5097950;28;20224;-84
2021/10/03 05:41:08;;;;;;;2.77;2.47;;;;;;;19.40;58.59;99333.38;5099500;28;20692;-85
2021/10/03 05:43:37;;;;;;;3.10;2.60;;;;;;;19.36;58.79;99330.19;5089483;28;20231;-85
2021/10/03 05:46:04;;;;;;;5.40;3.03;;;;;;;19.32;59.07;99331.63;5090806;28;20219;-85
2021/10/03 05:48:32;;;;;;;6.73;2.77;;;;;;;19.29;59.15;99333.84;5092046;28;20756;-84
2021/10/03 05:50:59;;;;;;;4.03;2.83;;;;;;;19.28;59.17;99335.69;5097882;28;20290;-84
2021/10/03 05:53:26;;;;;;;3.20;2.47;;;;;;;19.24;58.90;99328.16;5093586;28;20207;-84
2021/10/03 05:55:54;;;;;;;3.43;3.13;;;;;;;19.19;58.78;99330.56;5088704;28;20644;-84
2021/10/03 05:58:21;;;;;;;4.37;2.90;;;;;;;19.16;58.97;99331.78;5094231;28;20258;-84
2021/10/03 06:00:47;;;;;;;2.97;2.67;;;;;;;19.15;58.74;99337.38;5091158;28;20689;-84
2021/10/03 06:03:14;;;;;;;4.67;3.10;;;;;;;19.15;58.97;99351.69;5088334;28;20226;-84
2021/10/03 06:05:40;;;;;;;3.87;2.80;;;;;;;19.14;58.91;99349.19;5097139;28;20227;-84
2021/10/03 06:08:07;;;;;;;4.60;2.67;;;;;;;19.12;58.91;99352.06;5099698;28;20230;-84
2021/10/03 06:10:34;;;;;;;6.13;3.07;;;;;;;19.12;59.16;99351.22;5099554;28;20204;-84
2021/10/03 06:13:04;;;;;;;3.53;3.03;;;;;;;19.11;58.87;99349.53;5096025;28;20269;-85
2021/10/03 06:15:31;;;;;;;4.77;2.90;;;;;;;19.12;59.07;99340.41;5100578;28;20256;-84
2021/10/03 06:17:57;;;;;;;6.73;3.33;;;;;;;19.12;59.10;99356.63;5099364;28;20233;-84
2021/10/03 06:20:24;;;;;;;3.43;3.00;;;;;;;19.10;59.40;99353.25;5096445;28;20213;-85
2021/10/03 06:22:51;;;;;;;4.40;3.03;;;;;;;19.07;59.42;99352.59;5100170;28;20230;-84
2021/10/03 06:25:17;;;;;;;3.23;2.83;;;;;;;19.05;59.29;99343.84;5099256;28;20254;-85
2021/10/03 06:27:44;;;;;;;3.40;3.10;;;;;;;19.03;59.45;99351.28;5100122;28;20236;-84
2021/10/03 06:30:13;;;;;;;2.93;2.57;;;;;;;19.03;59.18;99353.13;5099711;28;20205;-84
2021/10/03 06:32:39;;;;;;;3.53;3.13;;;;;;;19.01;59.13;99360.56;5098637;28;20211;-84
2021/10/03 06:35:07;;;;;;;4.73;3.13;;;;;;;19.00;59.34;99357.03;5101078;28;20205;-85
2021/10/03 06:37:33;;;;;;;5.17;2.60;;;;;;;19.00;59.32;99357.03;5101252;28;20671;-84
2021/10/03 06:40:00;;;;;;;3.53;2.70;;;;;;;19.00;59.38;99361.59;5093326;28;20203;-89
2021/10/03 06:42:27;;;;;;;3.60;2.73;;;;;;;19.00;59.30;99364.28;5093705;28;20217;-87
2021/10/03 06:44:53;;;;;;;3.83;2.73;;;;;;;19.00;59.26;99375.94;5093027;28;20235;-87
2021/10/03 06:47:21;;;;;;;4.20;2.93;;;;;;;19.01;59.43;99358.72;5091742;28;20209;-87
2021/10/03 06:49:48;;;;;;;4.13;3.37;;;;;;;19.01;59.41;99360.56;5092369;28;20665;-87
2021/10/03 06:52:14;;;;;;;3.70;2.90;;;;;;;18.99;59.69;99351.81;5092682;28;20209;-89
2021/10/03 06:54:41;;;;;;;4.80;3.00;;;;;;;18.98;59.67;99356.41;5084678;28;20289;-89
2021/10/03 06:57:07;;;;;;;4.17;2.83;;;;;;;18.95;59.70;99362.16;5092576;28;20210;-89
2021/10/03 06:59:34;;;;;;;6.60;2.97;;;;;;;18.95;59.85;99355.94;5092134;28;20225;-86
2021/10/03 07:02:03;;;;;;;4.03;3.37;;;;;;;18.94;59.85;99359.66;5092578;28;20248;-89
2021/10/03 07:04:32;;;;;;;4.30;3.03;;;;;;;18.92;59.44;99357.13;5094184;28;20205;-86
2021/10/03 07:06:58;;;;;;;3.67;3.17;;;;;;;18.92;59.79;99367.09;5097777;28;20321;-88
2021/10/03 07:09:25;;;;;;;3.60;2.53;;;;;;;18.90;59.60;99364.56;5091661;28;20227;-86
2021/10/03 07:11:56;;;;;;;3.13;2.77;;;;;;;18.91;59.76;99368.09;5086352;28;20209;-89
2021/10/03 07:14:23;;;;;;;3.00;2.70;;;;;;;18.91;59.53;99376.19;5089505;28;20629;-89
2021/10/03 07:16:49;;;;;;;2.57;2.37;;;;;;;18.90;59.23;99369.94;5093465;28;20284;-89
2021/10/03 07:19:16;;;;;;;3.63;2.87;;;;;;;18.90;59.21;99367.25;5091608;28;20315;-88
2021/10/03 07:21:44;;;;;;;3.50;2.50;;;;;;;18.92;58.99;99380.56;5090128;28;20577;-88
2021/10/03 07:24:11;;;;;;;2.60;2.40;;;;;;;18.94;58.90;99375.84;5093081;28;20742;-90
2021/10/03 07:26:37;;;;;;;4.17;2.57;;;;;;;18.93;58.83;99369.59;5087384;28;20337;-88
2021/10/03 07:29:04;;;;;;;3.00;2.70;;;;;;;18.97;58.67;99381.72;5088926;28;20304;-88
2021/10/03 07:31:31;;;;;;;4.03;2.50;;;;;;;18.99;58.63;99378.81;5092264;28;20242;-87
2021/10/03 07:33:58;;;;;;;2.77;2.57;;;;;;;19.00;58.17;99378.63;5085770;28;20216;-87
2021/10/03 07:36:27;;;;;;;5.27;2.40;;;;;;;19.00;58.07;99380.47;5084055;28;20561;-86
2021/10/03 07:38:55;;;;;;;3.73;2.37;;;;;;;19.00;57.75;99369.69;5079962;28;20695;-89
2021/10/03 07:41:22;;;;;;;3.07;2.20;;;;;;;18.99;57.74;99371.53;5079836;28;20300;-86
2021/10/03 07:43:49;;;;;;;3.20;2.40;;;;;;;19.00;57.42;99373.22;5080448;28;20311;-87
2021/10/03 07:46:17;;;;;;;3.00;2.27;;;;;;;19.00;57.31;99370.53;5077906;28;20221;-86
2021/10/03 07:48:44;;;;;;;4.40;2.53;;;;;;;19.01;57.01;99377.59;5075419;28;20234;-85
2021/10/03 07:51:11;;;;;;;2.90;2.30;;;;;;;19.04;56.82;99371.00;5082567;28;20296;-86
2021/10/03 07:53:39;;;;;;;3.60;2.40;;;;;;;19.06;56.70;99385.16;5081444;28;20215;-87
2021/10/03 07:56:10;;;;;;;2.87;2.40;;;;;;;19.07;56.36;99389.53;5079923;28;20197;-86
2021/10/03 07:58:36;;;;;;;2.93;2.40;;;;;;;19.11;56.19;99371.13;5080945;28;20700;-87
2021/10/03 08:01:03;;;;;;;3.43;2.67;;;;;;;19.14;56.22;99377.00;5075778;28;20210;-89
2021/10/03 08:03:30;;;;;;;3.97;2.40;;;;;;;19.17;55.87;99373.09;5083344;28;20201;-88
2021/10/03 08:05:57;;;;;;;4.20;2.50;;;;;;;19.20;55.62;99389.75;5080467;28;20227;-87
2021/10/03 08:08:23;;;;;;;2.60;2.23;;;;;;;19.21;55.49;99382.50;5079059;28;20233;-89
2021/10/03 08:10:50;;;;;;;2.83;2.30;;;;;;;19.23;55.25;99378.59;5080564;28;20199;-86
2021/10/03 08:13:19;;;;;;;2.20;2.00;;;;;;;19.25;54.86;99379.25;5083916;28;20213;-84
2021/10/03 08:15:46;;;;;;;2.43;2.20;;;;;;;19.28;54.60;99386.16;5084912;28;20206;-90
2021/10/03 08:18:16;;;;;;;3.00;2.30;;;;;;;19.30;54.24;99376.84;5076534;28;20225;-90
2021/10/03 08:20:47;;;;;;;2.30;2.10;;;;;;;19.30;54.16;99374.16;5082605;28;20647;-89
2021/10/03 08:23:17;;;;;;;2.87;2.23;;;;;;;19.34;54.10;99382.72;5083502;28;20241;-89
2021/10/03 08:25:44;;;;;;;2.60;2.20;;;;;;;19.35;54.08;99374.41;5084089;28;20663;-88
2021/10/03 08:28:10;;;;;;;2.97;2.23;;;;;;;19.37;54.12;99369.66;5084141;28;20242;-87
2021/10/03 08:30:38;;;;;;;2.50;2.30;;;;;;;19.39;54.08;99377.59;5082756;28;20647;-87
2021/10/03 08:33:05;;;;;;;3.70;2.13;;;;;;;19.40;53.73;99377.41;5085785;28;20209;-86
2021/10/03 08:35:32;;;;;;;2.40;2.20;;;;;;;19.43;53.45;99382.44;5088928;28;20254;-86
2021/10/03 08:37:59;;;;;;;2.10;1.90;;;;;;;19.47;53.50;99382.06;5087307;28;20258;-87
2021/10/03 08:40:26;;;;;;;4.00;2.40;;;;;;;19.48;53.34;99391.84;5079484;28;20207;-86
2021/10/03 08:42:52;;;;;;;2.87;2.00;;;;;;;19.51;53.06;99372.63;5086781;28;20204;-87
2021/10/03 08:45:20;;;;;;;4.73;2.20;;;;;;;19.51;53.08;99378.88;5089980;28;20204;-86
2021/10/03 08:47:48;;;;;;;2.17;1.97;;;;;;;19.55;52.82;99379.31;5088612;28;20227;-88
2021/10/03 08:50:17;;;;;;;2.10;1.87;;;;;;;19.57;52.91;99388.06;5087727;28;20202;-86
2021/10/03 08:52:45;;;;;;;2.60;2.17;;;;;;;19.57;52.67;99388.91;5091966;28;20233;-86
2021/10/03 08:55:14;;;;;;;3.43;2.23;;;;;;;19.59;52.61;99386.03;5090314;28;20208;-86
2021/10/03 08:57:41;;;;;;;3.73;2.00;;;;;;;19.60;52.70;99382.28;5087323;28;20203;-87
2021/10/03 09:00:10;;;;;;;2.93;2.00;;;;;;;19.63;52.42;99387.34;5089753;28;20648;-86
2021/10/03 09:02:55;;;;;;;2.57;2.27;;;;;;;19.64;52.41;99397.13;5081909;28;20199;-86
2021/10/03 09:05:24;;;;;;;2.03;1.73;;;;;;;19.65;52.39;99390.69;5090543;28;20675;-87
2021/10/03 09:08:06;;;;;;;2.50;2.30;;;;;;;19.67;52.25;99388.66;5088173;28;20228;-89
2021/10/03 09:10:58;;;;;;;2.50;2.30;;;;;;;19.69;52.21;99383.91;5086214;28;20599;-87
2021/10/03 09:13:41;;;;;;;2.57;2.37;;;;;;;19.69;52.09;99400.94;5065327;28;20445;-87
2021/10/03 09:16:10;;;;;;;5.30;2.30;;;;;;;19.70;52.08;99399.91;5088724;28;20208;-86
2021/10/03 09:18:46;;;;;;;4.63;2.50;;;;;;;19.74;51.82;99398.50;5090456;28;20711;-86
2021/10/03 09:21:15;;;;;;;3.57;2.07;;;;;;;19.77;51.71;99398.13;5085866;28;20553;-86
2021/10/03 09:23:42;;;;;;;2.73;1.93;;;;;;;19.80;51.89;99399.63;5086519;28;20294;-86
2021/10/03 09:26:13;;;;;;;2.20;2.00;;;;;;;19.82;51.52;99394.88;5094245;28;20582;-85
2021/10/03 09:28:40;;;;;;;3.90;2.23;;;;;;;19.85;51.93;99409.88;5103233;28;20231;-86
2021/10/03 09:31:09;;;;;;;2.73;2.30;;;;;;;19.86;51.53;99398.06;5097555;28;20210;-86
2021/10/03 09:33:44;;;;;;;2.80;2.00;;;;;;;19.88;51.55;99410.34;5102640;28;20219;-86
2021/10/03 09:36:12;;;;;;;4.30;2.10;;;;;;;19.90;51.52;99407.44;5097665;28;20645;-86
2021/10/03 09:38:44;;;;;;;2.53;2.10;;;;;;;19.92;51.47;99411.63;5092773;22;20232;-75
2021/10/03 09:41:12;;;;;;;2.53;2.30;;;;;;;19.95;51.06;99397.75;5060842;28;20215;-75
2021/10/03 09:43:45;;;;;;;2.43;1.80;;;;;;;19.96;50.94;99396.72;5074154;28;20208;-75
2021/10/03 09:46:32;;;;;;;3.23;2.20;;;;;;;20.00;51.03;99403.44;5071621;28;20235;-75
2021/10/03 09:49:01;;;;;;;2.93;2.00;;;;;;;20.03;51.24;99408.47;5068427;28;20226;-75
2021/10/03 09:53:57;;;;;;;4.07;3.17;;;;;;;20.09;51.33;99399.59;5073060;22;20591;-77
2021/10/03 09:56:24;;;;;;;3.30;2.30;;;;;;;20.14;51.14;99403.59;5050794;28;20613;-77
2021/10/03 09:58:53;;;;;;;3.20;2.90;;;;;;;20.15;50.88;99400.72;5057694;28;20223;-74
2021/10/03 10:01:21;;;;;;;2.60;2.40;;;;;;;20.20;50.87;99403.69;5048232;28;20202;-77
2021/10/03 10:03:47;;;;;;;3.63;2.50;;;;;;;20.24;51.04;99402.31;5053055;28;20234;-76
2021/10/03 10:06:17;;;;;;;5.93;2.83;;;;;;;20.30;51.08;99400.69;5051771;28;20240;-75
2021/10/03 10:08:44;;;;;;;2.33;2.13;;;;;;;20.35;50.96;99390.16;5051450;28;20619;-76
2021/10/03 10:11:14;;;;;;;3.17;2.20;;;;;;;20.39;50.87;99399.59;5054612;28;20199;-75
2021/10/03 10:13:41;;;;;;;2.30;2.10;;;;;;;20.47;50.79;99402.16;5056153;28;20221;-75
2021/10/03 10:16:29;;;;;;;4.17;2.30;;;;;;;20.52;50.55;99405.13;5052202;28;20206;-75
2021/10/03 10:19:32;;;;;;;3.13;2.40;;;;;;;20.57;50.75;99402.72;5039616;28;20218;-76
2021/10/03 10:22:36;;;;;;;2.20;2.00;;;;;;;20.62;50.53;99399.41;5051741;28;20231;-75
2021/10/03 10:25:40;;;;;;;2.70;2.20;;;;;;;20.68;50.10;99396.78;5045162;28;20239;-75
2021/10/03 10:28:10;;;;;;;3.80;2.40;;;;;;;20.69;50.08;99398.47;5032530;28;20580;-76
2021/10/03 10:30:59;;;;;;;3.30;2.27;;;;;;;20.73;49.85;99385.38;5043390;28;20201;-76
2021/10/03 10:33:26;;;;;;;3.93;2.50;;;;;;;20.78;49.73;99408.09;5042218;28;20235;-76
2021/10/03 10:36:17;;;;;;;2.80;2.20;;;;;;;20.84;49.80;99398.41;5043170;28;20205;-76
2021/10/03 10:39:18;;;;;;;3.20;2.57;;;;;;;20.89;49.69;99390.53;5045092;28;20213;-75
2021/10/03 10:41:46;;;;;;;3.90;2.80;;;;;;;20.94;49.77;99389.97;5040770;28;20220;-76
2021/10/03 10:44:28;;;;;;;2.83;2.37;;;;;;;20.98;49.67;99383.09;5043801;28;20786;-75
2021/10/03 10:46:56;;;;;;;2.40;2.20;;;;;;;21.03;49.39;99380.66;5044851;28;20229;-76
2021/10/03 10:49:37;;;;;;;3.67;1.90;;;;;;;21.08;49.01;99379.06;5045679;28;20212;-76
2021/10/03 10:52:34;;;;;;;3.40;2.60;;;;;;;21.14;48.97;99382.81;5043541;28;20233;-76
2021/10/03 10:55:32;;;;;;;2.10;1.88;;;;;;;21.21;48.56;99385.63;5035381;28;20677;-76
2021/10/03 10:58:18;;;;;;;2.58;2.20;;;;;;;21.25;48.45;99395.88;5046209;28;20639;-76
2021/10/03 11:00:59;;;;;;;3.17;2.00;;;;;;;21.32;48.13;99379.66;5048160;28;20641;-74
2021/10/03 11:04:03;;;;;;;2.10;1.80;;;;;;;21.37;47.71;99388.88;5046424;28;20229;-75
2021/10/03 11:07:01;;;;;;;2.17;1.98;;;;;;;21.42;47.64;99369.34;5037509;28;20225;-76
2021/10/03 11:09:54;;;;;;;2.35;2.10;;;;;;;21.44;47.39;99381.66;5042132;28;20201;-76
2021/10/03 11:12:33;;;;;;;2.83;1.90;;;;;;;21.46;47.22;99382.31;5044082;28;20244;-75
2021/10/03 11:15:22;;;;;;;3.78;1.95;;;;;;;21.50;47.30;99380.00;5047922;28;20205;-75
2021/10/03 11:17:49;;;;;;;2.22;2.03;;;;;;;21.52;47.22;99377.94;5045474;28;20201;-76
2021/10/03 11:20:15;;;;;;;2.10;1.90;;;;;;;21.54;46.96;99385.88;5040687;28;20205;-76
2021/10/03 11:22:44;;;;;;;3.25;2.33;;;;;;;21.55;47.01;99384.84;5045829;28;20240;-78
2021/10/03 11:25:17;;;;;;;2.97;1.98;;;;;;;21.58;46.97;99393.41;5041056;28;20216;-75
2021/10/03 11:27:54;;;;;;;3.38;2.03;;;;;;;21.60;47.07;99375.09;5040651;28;20229;-75
2021/10/03 11:30:20;;;;;;;5.55;2.10;;;;;;;21.62;46.77;99383.03;5042141;28;20201;-76
2021/10/03 11:32:47;;;;;;;2.60;2.13;;;;;;;21.63;46.69;99382.81;5040989;28;20236;-76
2021/10/03 11:35:13;;;;;;;6.40;2.30;;;;;;;21.65;46.44;99388.88;5047090;28;20206;-76
2021/10/03 11:37:44;;;;;;;2.20;2.00;;;;;;;21.72;46.21;99389.75;5042001;28;20240;-76
2021/10/03 11:40:13;;;;;;;3.85;2.17;;;;;;;21.75;46.27;99383.09;5040261;28;20661;-76
2021/10/03 11:42:42;;;;;;;2.78;1.92;;;;;;;21.79;46.28;99387.91;5039856;28;20222;-77
2021/10/03 11:45:13;;;;;;;3.70;2.00;;;;;;;21.86;46.15;99382.50;5038093;28;20205;-76
2021/10/03 11:47:42;;;;;;;2.40;2.08;;;;;;;21.89;46.10;99389.41;5039855;28;20225;-77